Time;durP1;ratioP1;P1;durP2;ratioP2;P2;SDS_P1;SDS_P2;PMS_P1;PMS_P2;Temp;Humidity;BMP_temperature;BMP_pressure;BME280_temperature;BME280_humidity;BME280_pressure;Samples;Min_cycle;Max_cycle;Signal;HPM_P1;HPM_P2
2022/06/07 00:02:06;;;;;;;8.13;4.97;;;487.10;2380.80;;;;;;5072862;28;20055;-54
2022/06/07 00:04:32;;;;;;;5.57;4.75;;;487.10;2380.80;;;;;;5072962;28;20111;-53
2022/06/07 00:06:58;;;;;;;6.68;4.38;;;487.00;2380.80;;;;;;5072980;28;20059;-52
2022/06/07 00:09:24;;;;;;;6.25;4.70;;;487.00;2380.80;;;;;;5072763;28;20462;-52
2022/06/07 00:11:50;;;;;;;5.95;4.57;;;486.90;2380.80;;;;;;5072847;28;20040;-53
2022/06/07 00:14:16;;;;;;;5.88;4.38;;;486.80;2380.80;;;;;;5072823;28;20478;-54
2022/06/07 00:16:41;;;;;;;6.65;4.72;;;486.80;2380.80;;;;;;5073027;28;20109;-53
2022/06/07 00:19:07;;;;;;;6.28;3.85;;;486.80;2380.80;;;;;;5072604;28;20194;-54
2022/06/07 00:21:33;;;;;;;6.20;5.03;;;486.80;2380.80;;;;;;5072724;28;20028;-54
2022/06/07 00:24:02;;;;;;;8.05;5.10;;;487.10;2380.80;;;;;;5073048;28;20070;-51
2022/06/07 00:26:29;;;;;;;8.65;5.57;;;486.90;2380.80;;;;;;5072561;28;20032;-54
2022/06/07 00:28:55;;;;;;;7.03;4.35;;;486.90;2380.80;;;;;;5072311;28;20471;-51
2022/06/07 00:31:21;;;;;;;5.65;4.45;;;486.80;2380.80;;;;;;5072507;28;20033;-52
2022/06/07 00:33:48;;;;;;;7.65;4.57;;;486.90;2380.80;;;;;;5072255;28;20474;-54
2022/06/07 00:36:15;;;;;;;7.35;4.35;;;486.80;2380.80;;;;;;5072539;28;20021;-54
2022/06/07 00:38:43;;;;;;;5.40;4.30;;;486.90;2380.80;;;;;;5072461;28;20035;-55
2022/06/07 00:41:09;;;;;;;8.80;5.40;;;487.00;2380.80;;;;;;5072299;28;20024;-55
2022/06/07 00:43:36;;;;;;;6.43;4.60;;;487.00;2380.80;;;;;;5072285;28;20090;-51
2022/06/07 00:46:06;;;;;;;6.63;5.28;;;487.00;2380.80;;;;;;5072282;28;20471;-54
2022/06/07 00:48:32;;;;;;;6.68;4.85;;;487.00;2380.80;;;;;;5072370;28;20036;-51
2022/06/07 00:51:11;;;;;;;7.40;5.32;;;487.00;2380.80;;;;;;5072115;28;20021;-52
2022/06/07 00:53:38;;;;;;;8.02;5.05;;;487.00;2380.80;;;;;;5071891;28;20059;-54
2022/06/07 00:56:05;;;;;;;6.60;4.70;;;487.00;2380.80;;;;;;5072143;28;20032;-54
2022/06/07 00:58:32;;;;;;;6.65;4.63;;;487.10;2380.80;;;;;;5071675;28;20045;-52
2022/06/07 01:00:59;;;;;;;6.95;5.10;;;487.00;2380.80;;;;;;5071807;28;20374;-53
2022/06/07 01:03:26;;;;;;;7.55;4.72;;;487.00;2380.80;;;;;;5071622;28;20021;-54
2022/06/07 01:05:52;;;;;;;6.18;4.47;;;487.00;2380.80;;;;;;5071948;28;20028;-53
2022/06/07 01:11:04;;;;;;;7.93;4.88;;;487.00;2380.80;;;;;;5072098;28;20512;-55
2022/06/07 01:13:32;;;;;;;7.80;5.20;;;487.00;2380.80;;;;;;5072089;28;20039;-52
2022/06/07 01:16:02;;;;;;;7.00;4.85;;;487.00;2380.80;;;;;;5071556;28;20031;-54
2022/06/07 01:18:31;;;;;;;14.90;6.40;;;486.90;2380.80;;;;;;5071515;28;20032;-55
2022/06/07 01:21:15;;;;;;;8.13;4.93;;;486.80;2380.80;;;;;;5071541;28;20432;-54
2022/06/07 01:23:42;;;;;;;9.60;5.18;;;486.90;2380.80;;;;;;5071701;28;20103;-51
2022/06/07 01:26:09;;;;;;;7.60;4.72;;;486.80;2380.80;;;;;;5071325;28;20025;-55
2022/06/07 01:28:35;;;;;;;7.05;4.63;;;486.80;2380.80;;;;;;5071066;28;20108;-54
2022/06/07 01:31:01;;;;;;;8.45;4.38;;;486.90;2380.80;;;;;;5071460;28;20025;-54
2022/06/07 01:33:26;;;;;;;7.03;4.95;;;486.90;2380.80;;;;;;5071315;28;20059;-54
2022/06/07 01:36:01;;;;;;;6.85;4.75;;;486.90;2380.80;;;;;;5053520;28;20029;-54
2022/06/07 01:38:27;;;;;;;9.43;4.80;;;486.80;2380.80;;;;;;5071202;28;20459;-55
2022/06/07 01:43:38;;;;;;;8.25;5.00;;;486.50;2380.80;;;;;;5071346;28;20074;-52
2022/06/07 01:46:05;;;;;;;6.55;5.05;;;486.70;2380.80;;;;;;5070998;28;20086;-53
2022/06/07 01:48:31;;;;;;;6.53;5.25;;;486.80;2380.80;;;;;;5071124;28;20032;-53
2022/06/07 01:51:08;;;;;;;11.18;4.70;;;486.70;2380.80;;;;;;5070935;28;20356;-54
2022/06/07 01:53:35;;;;;;;4.93;3.85;;;486.70;2380.80;;;;;;5070895;28;20024;-53
2022/06/07 01:56:13;;;;;;;6.28;4.70;;;486.80;2380.80;;;;;;5070992;28;20066;-54
2022/06/07 01:58:41;;;;;;;6.28;4.97;;;486.80;2380.80;;;;;;5070549;28;20414;-54
2022/06/07 02:01:08;;;;;;;6.60;5.10;;;486.70;2380.80;;;;;;5070533;28;20078;-55
2022/06/07 02:03:34;;;;;;;7.93;4.63;;;486.70;2380.80;;;;;;5070554;28;20032;-52
2022/06/07 02:06:02;;;;;;;5.50;4.20;;;486.70;2380.80;;;;;;5070770;28;20070;-52
2022/06/07 02:08:29;;;;;;;9.90;4.97;;;486.70;2380.80;;;;;;5070483;28;20493;-55
2022/06/07 02:10:55;;;;;;;8.80;5.53;;;486.70;2380.80;;;;;;5070381;28;20025;-54
2022/06/07 02:13:22;;;;;;;9.77;4.93;;;486.70;2380.80;;;;;;5070586;28;20429;-54
2022/06/07 02:15:49;;;;;;;7.57;4.53;;;486.70;2380.80;;;;;;5069937;28;20024;-55
2022/06/07 02:18:15;;;;;;;9.07;5.03;;;486.70;2380.80;;;;;;5070455;28;20020;-53
2022/06/07 02:20:41;;;;;;;8.52;4.95;;;486.70;2380.80;;;;;;5070360;28;20032;-54
2022/06/07 02:23:08;;;;;;;5.78;4.38;;;486.60;2380.80;;;;;;5070273;28;20372;-55
2022/06/07 02:25:41;;;;;;;8.20;5.38;;;486.50;2380.80;;;;;;5070364;28;20025;-56
2022/06/07 02:28:11;;;;;;;8.23;5.15;;;486.50;2380.80;;;;;;5070201;28;20032;-54
2022/06/07 02:30:38;;;;;;;7.50;4.47;;;486.40;2380.80;;;;;;5069975;28;20036;-52
2022/06/07 02:33:04;;;;;;;8.60;5.10;;;486.40;2380.80;;;;;;5070511;28;20051;-54
2022/06/07 02:35:30;;;;;;;6.90;4.53;;;486.40;2380.80;;;;;;5070444;28;20029;-53
2022/06/07 02:37:56;;;;;;;7.00;4.28;;;461.70;2380.80;;;;;;5051848;28;20445;-53
2022/06/07 02:40:22;;;;;;;7.20;4.68;;;461.70;2380.80;;;;;;5070312;28;20033;-54
2022/06/07 02:42:47;;;;;;;8.00;4.65;;;461.70;2380.80;;;;;;5070128;28;20029;-54
2022/06/07 02:45:13;;;;;;;6.57;4.03;;;461.70;2380.80;;;;;;5070256;28;20445;-53
2022/06/07 02:47:39;;;;;;;8.75;5.28;;;461.70;2380.80;;;;;;5070010;28;20020;-51
2022/06/07 02:50:05;;;;;;;7.63;4.72;;;461.70;2380.80;;;;;;5070158;28;20029;-53
2022/06/07 02:52:31;;;;;;;8.82;4.80;;;461.60;2380.80;;;;;;5070069;28;20021;-54
2022/06/07 02:54:57;;;;;;;7.38;4.97;;;461.60;2380.80;;;;;;5069977;28;20031;-55
2022/06/07 02:57:23;;;;;;;8.85;4.75;;;461.50;2380.80;;;;;;5069982;28;20035;-54
2022/06/07 02:59:48;;;;;;;9.52;5.68;;;461.50;2380.80;;;;;;5069826;28;20040;-54
2022/06/07 03:02:14;;;;;;;7.45;5.07;;;461.50;2380.80;;;;;;5069856;28;20081;-54
2022/06/07 03:04:40;;;;;;;7.40;5.53;;;461.50;2380.80;;;;;;5070089;28;20035;-54
2022/06/07 03:07:07;;;;;;;7.25;4.82;;;461.50;2380.80;;;;;;5069534;28;20023;-54
2022/06/07 03:09:33;;;;;;;7.93;5.30;;;461.40;2380.80;;;;;;5070013;28;20035;-54
2022/06/07 03:11:59;;;;;;;7.60;5.28;;;461.40;2380.80;;;;;;5069893;28;20024;-54
2022/06/07 03:14:24;;;;;;;10.10;5.30;;;461.50;2380.80;;;;;;5069587;28;20070;-54
2022/06/07 03:16:50;;;;;;;7.43;5.97;;;461.50;2380.80;;;;;;5069868;28;20056;-54
2022/06/07 03:19:16;;;;;;;6.22;4.43;;;461.50;2380.80;;;;;;5069572;28;20528;-53
2022/06/07 03:21:42;;;;;;;6.70;5.32;;;461.60;2380.80;;;;;;5069976;28;20144;-51
2022/06/07 03:24:08;;;;;;;5.95;4.88;;;461.70;2380.80;;;;;;5069594;28;20021;-54
2022/06/07 03:26:34;;;;;;;8.57;4.85;;;486.40;2380.80;;;;;;5072920;28;20884;-54
2022/06/07 03:29:00;;;;;;;7.05;4.68;;;461.70;2380.80;;;;;;5073746;28;20024;-54
2022/06/07 03:31:26;;;;;;;7.60;5.28;;;486.40;2380.80;;;;;;5073510;28;20040;-51
2022/06/07 03:33:52;;;;;;;8.15;5.10;;;486.40;2380.80;;;;;;5073678;28;20044;-52
2022/06/07 03:36:23;;;;;;;9.23;5.13;;;486.50;2380.80;;;;;;5073562;28;20077;-53
2022/06/07 03:38:50;;;;;;;8.32;5.43;;;486.50;2380.80;;;;;;5073317;28;20036;-54
2022/06/07 03:41:21;;;;;;;6.55;4.88;;;486.60;2380.80;;;;;;5073435;28;20029;-51
2022/06/07 03:43:47;;;;;;;7.70;4.55;;;486.70;2380.80;;;;;;5073243;28;20032;-54
2022/06/07 03:46:17;;;;;;;7.90;5.25;;;486.80;2380.80;;;;;;5073376;28;20371;-53
2022/06/07 03:48:44;;;;;;;9.52;5.35;;;486.90;2380.80;;;;;;5073439;28;20055;-54
2022/06/07 03:51:12;;;;;;;8.25;5.28;;;487.00;2380.80;;;;;;5073304;28;20078;-52
2022/06/07 03:53:39;;;;;;;9.05;5.95;;;487.10;2380.80;;;;;;5073053;28;20462;-53
2022/06/07 03:56:05;;;;;;;6.45;4.50;;;487.20;2380.80;;;;;;5073139;28;20021;-52
2022/06/07 03:58:31;;;;;;;7.50;5.28;;;512.10;2380.80;;;;;;5072933;28;20055;-54
2022/06/07 04:00:59;;;;;;;7.57;4.78;;;512.20;2380.80;;;;;;5072919;28;20482;-54
2022/06/07 04:03:25;;;;;;;6.32;4.75;;;512.40;2380.80;;;;;;5072826;28;20104;-54
2022/06/07 04:05:51;;;;;;;6.68;4.90;;;512.60;2380.80;;;;;;5072881;28;20036;-55
2022/06/07 04:08:17;;;;;;;6.72;5.40;;;512.80;2380.80;;;;;;5072798;28;20025;-54
2022/06/07 04:10:47;;;;;;;7.50;5.07;;;537.60;2406.40;;;;;;5073030;28;20071;-52
2022/06/07 04:13:14;;;;;;;7.35;5.00;;;537.70;2406.40;;;;;;5072828;28;20035;-52
2022/06/07 04:15:40;;;;;;;11.57;6.05;;;538.00;2406.40;;;;;;5072986;28;20478;-55
2022/06/07 04:18:07;;;;;;;8.63;5.50;;;538.30;2406.40;;;;;;5072732;28;20108;-54
2022/06/07 04:20:33;;;;;;;6.03;4.55;;;538.40;2406.40;;;;;;5072901;28;20071;-54
2022/06/07 04:22:59;;;;;;;6.82;4.65;;;563.20;2432.00;;;;;;5072631;28;20017;-53
2022/06/07 04:25:25;;;;;;;8.95;5.68;;;563.20;2432.00;;;;;;5072183;28;20032;-55
2022/06/07 04:27:51;;;;;;;6.47;5.10;;;563.20;2432.00;;;;;;5072640;28;20085;-54
2022/06/07 04:30:17;;;;;;;6.85;4.30;;;563.50;2432.00;;;;;;5072331;28;20112;-55
2022/06/07 04:32:46;;;;;;;8.20;4.35;;;563.60;2432.00;;;;;;5072621;28;20033;-52
2022/06/07 04:35:15;;;;;;;6.78;4.45;;;563.80;2432.00;;;;;;5072693;28;20502;-54
2022/06/07 04:37:41;;;;;;;5.65;4.50;;;564.10;2432.00;;;;;;5071721;28;20044;-54
2022/06/07 04:40:07;;;;;;;7.13;4.85;;;564.10;2432.00;;;;;;5072073;28;20044;-54
2022/06/07 04:42:33;;;;;;;6.78;4.18;;;614.70;2432.00;;;;;;5072145;28;20028;-55
2022/06/07 04:44:58;;;;;;;7.00;4.72;;;640.40;2380.80;;;;;;5071917;28;20025;-54
2022/06/07 04:47:24;;;;;;;5.93;4.60;;;665.90;2304.00;;;;;;5072244;28;20071;-52
2022/06/07 04:49:50;;;;;;;6.60;4.63;;;742.50;1920.00;;;;;;5072207;28;20074;-53
2022/06/07 04:52:15;;;;;;;7.43;4.53;;;691.80;1971.20;;;;;;5070489;28;20352;-55
2022/06/07 04:54:41;;;;;;;7.55;4.32;;;692.10;1971.20;;;;;;5072067;28;20044;-54
2022/06/07 04:57:07;;;;;;;8.43;4.80;;;742.90;1843.20;;;;;;5071672;28;20027;-53
2022/06/07 04:59:33;;;;;;;6.32;4.78;;;819.60;1612.80;;;;;;5071872;28;20055;-55
2022/06/07 05:01:58;;;;;;;6.68;5.13;;;819.90;1561.60;;;;;;5071814;28;20028;-55
2022/06/07 05:04:25;;;;;;;7.13;5.25;;;819.20;1587.20;;;;;;5071782;28;20100;-55
2022/06/07 05:06:51;;;;;;;5.32;4.78;;;794.50;1587.20;;;;;;5071393;28;20467;-55
2022/06/07 05:09:24;;;;;;;6.60;5.25;;;794.30;1587.20;;;;;;5071525;28;20039;-55
2022/06/07 05:11:50;;;;;;;;;;;819.80;1536.00;;;;;;5072285;28;20095;-55
2022/06/07 05:14:16;;;;;;;6.28;5.05;;;870.50;1459.20;;;;;;5071394;28;19905;-54
2022/06/07 05:16:42;;;;;;;6.95;5.20;;;896.10;1356.80;;;;;;5071790;28;20029;-53
2022/06/07 05:19:10;;;;;;;6.38;5.78;;;871.30;1356.80;;;;;;5071536;28;20039;-54
2022/06/07 05:21:37;;;;;;;6.50;5.53;;;896.10;1356.80;;;;;;5071565;28;20138;-54
2022/06/07 05:24:03;;;;;;;5.80;5.13;;;845.20;1459.20;;;;;;5071434;28;20107;-54
2022/06/07 05:26:38;;;;;;;6.07;5.10;;;819.20;1536.00;;;;;;5071411;28;20524;-54
2022/06/07 05:29:20;;;;;;;8.32;5.15;;;819.70;1484.80;;;;;;5071322;28;20036;-55
2022/06/07 05:31:46;;;;;;;6.03;5.00;;;844.90;1484.80;;;;;;5071509;28;20143;-54
2022/06/07 05:34:11;;;;;;;6.55;5.50;;;819.80;1510.40;;;;;;5071500;28;20048;-54
2022/06/07 05:36:37;;;;;;;5.78;5.15;;;819.20;1561.60;;;;;;5071160;28;20447;-55
2022/06/07 05:39:04;;;;;;;7.28;5.35;;;819.40;1561.60;;;;;;5071034;28;20124;-55
2022/06/07 05:41:32;;;;;;;6.80;5.13;;;794.20;1561.60;;;;;;5071282;28;20016;-55
2022/06/07 05:43:58;;;;;;;6.00;4.55;;;794.30;1561.60;;;;;;5071362;28;20112;-55
2022/06/07 05:46:24;;;;;;;6.13;5.40;;;793.90;1587.20;;;;;;5071197;28;20378;-53
2022/06/07 05:48:51;;;;;;;6.28;5.68;;;793.70;1612.80;;;;;;5070209;28;20494;-55
2022/06/07 05:51:17;;;;;;;8.90;7.22;;;819.30;1561.60;;;;;;5070980;28;20028;-55
2022/06/07 05:53:43;;;;;;;8.48;6.13;;;871.20;1356.80;;;;;;5070980;28;20025;-56
2022/06/07 05:56:12;;;;;;;7.68;6.55;;;947.30;1305.60;;;;;;5070859;28;20067;-55
2022/06/07 05:58:38;;;;;;;7.95;7.13;;;998.60;1228.80;;;;;;5070366;28;20041;-56
2022/06/07 06:01:07;;;;;;;7.47;6.65;;;1049.70;1126.40;;;;;;5071130;28;20219;-56
2022/06/07 06:03:35;;;;;;;10.15;7.00;;;1075.50;1075.20;;;;;;5071012;28;20029;-56
2022/06/07 06:06:01;;;;;;;8.10;7.40;;;1075.70;1049.60;;;;;;5070760;28;20497;-56
2022/06/07 06:11:18;;;;;;;8.25;7.45;;;1101.40;1024.00;;;;;;5070815;28;20071;-56
2022/06/07 06:13:44;;;;;;;8.50;7.90;;;1126.60;1024.00;;;;;;5070778;28;20406;-56
2022/06/07 06:16:14;;;;;;;8.02;7.32;;;1127.30;998.40;;;;;;5070593;28;20028;-57
2022/06/07 06:18:41;;;;;;;8.55;7.85;;;1152.50;972.80;;;;;;5070695;28;20060;-56
2022/06/07 06:21:07;;;;;;;9.00;8.10;;;1126.40;998.40;;;;;;5070338;28;20056;-57
2022/06/07 06:23:33;;;;;;;8.68;7.88;;;1075.60;1024.00;;;;;;5070459;28;20044;-53
2022/06/07 06:25:59;;;;;;;10.10;9.40;;;1127.10;972.80;;;;;;5070254;28;20032;-56
2022/06/07 06:28:25;;;;;;;10.02;9.23;;;1152.00;921.60;;;;;;5070090;28;20094;-56
2022/06/07 06:30:52;;;;;;;9.80;9.07;;;1127.10;972.80;;;;;;5070246;28;20064;-55
2022/06/07 06:33:18;;;;;;;10.57;9.88;;;1075.90;972.80;;;;;;5069965;28;20044;-56
2022/06/07 06:35:52;;;;;;;11.02;10.18;;;1049.80;1049.60;;;;;;5070315;28;20028;-56
2022/06/07 06:38:20;;;;;;;9.85;8.93;;;1075.60;972.80;;;;;;5069936;28;20364;-53
2022/06/07 06:40:46;;;;;;;11.77;10.93;;;1126.50;998.40;;;;;;5070093;28;20024;-55
2022/06/07 06:43:14;;;;;;;10.80;10.00;;;1126.40;998.40;;;;;;5070231;28;20031;-56
2022/06/07 06:45:40;;;;;;;9.07;8.45;;;1126.80;972.80;;;;;;5070494;28;20033;-55
2022/06/07 06:48:07;;;;;;;9.80;9.10;;;1075.70;972.80;;;;;;5070080;28;20032;-57
2022/06/07 06:50:34;;;;;;;12.20;11.25;;;1101.40;972.80;;;;;;5070214;28;20086;-55
2022/06/07 06:52:59;;;;;;;11.50;10.55;;;1101.70;947.20;;;;;;5070429;28;20074;-57
2022/06/07 06:55:25;;;;;;;10.88;9.75;;;1101.10;972.80;;;;;;5070053;28;20024;-56
2022/06/07 06:57:51;;;;;;;10.85;10.15;;;1049.90;998.40;;;;;;5069905;28;20041;-56
2022/06/07 07:00:17;;;;;;;11.80;10.57;;;1049.90;998.40;;;;;;5069657;28;20033;-56
2022/06/07 07:02:47;;;;;;;10.95;9.93;;;1100.80;998.40;;;;;;5070049;28;20379;-56
2022/06/07 07:05:14;;;;;;;9.82;8.93;;;1127.30;947.20;;;;;;5070117;28;20119;-54
2022/06/07 07:07:40;;;;;;;10.73;9.82;;;1101.30;972.80;;;;;;5069727;28;20020;-54
2022/06/07 07:10:08;;;;;;;11.05;10.15;;;1075.90;972.80;;;;;;5069589;28;20463;-56
2022/06/07 07:12:34;;;;;;;10.43;9.68;;;1101.50;947.20;;;;;;5070106;28;20024;-57
2022/06/07 07:15:01;;;;;;;10.15;9.32;;;1101.00;972.80;;;;;;5069960;28;20120;-52
2022/06/07 07:17:28;;;;;;;9.45;8.85;;;1101.10;947.20;;;;;;5069722;28;20020;-55
2022/06/07 07:19:55;;;;;;;10.48;9.57;;;1126.80;947.20;;;;;;5069783;28;20070;-56
2022/06/07 07:22:22;;;;;;;10.00;9.18;;;1152.10;921.60;;;;;;5069801;28;20028;-56
2022/06/07 07:24:48;;;;;;;9.65;8.95;;;1101.70;947.20;;;;;;5069360;28;20112;-57
2022/06/07 07:27:15;;;;;;;9.68;8.88;;;1127.10;921.60;;;;;;5069475;28;20037;-53
2022/06/07 07:29:41;;;;;;;9.73;8.88;;;1152.50;896.00;;;;;;5069690;28;20025;-55
2022/06/07 07:32:07;;;;;;;10.43;9.75;;;1126.90;947.20;;;;;;5069454;28;20032;-54
2022/06/07 07:34:32;;;;;;;11.32;10.40;;;1126.90;947.20;;;;;;5069739;28;20103;-56
2022/06/07 07:36:58;;;;;;;9.38;8.73;;;1126.40;947.20;;;;;;5069461;28;20107;-54
2022/06/07 07:39:25;;;;;;;10.15;9.35;;;1126.80;947.20;;;;;;5069503;28;20028;-55
2022/06/07 07:41:52;;;;;;;13.35;10.05;;;1101.10;972.80;;;;;;5069803;28;20052;-53
2022/06/07 07:44:19;;;;;;;10.63;9.52;;;1075.30;972.80;;;;;;5068785;28;20021;-51
2022/06/07 07:46:47;;;;;;;9.15;8.45;;;1126.70;947.20;;;;;;5069032;28;20032;-53
2022/06/07 07:49:18;;;;;;;10.57;9.65;;;1152.00;921.60;;;;;;5069269;28;20036;-54
2022/06/07 07:51:47;;;;;;;10.23;9.30;;;1076.10;972.80;;;;;;5067148;28;20046;-52
2022/06/07 07:54:20;;;;;;;9.80;9.00;;;1075.70;972.80;;;;;;5069280;28;20038;-54
2022/06/07 07:56:46;;;;;;;10.63;9.65;;;1075.90;972.80;;;;;;5069086;28;20493;-55
2022/06/07 07:59:19;;;;;;;9.82;9.05;;;1050.30;998.40;;;;;;5069395;28;20052;-52
2022/06/07 08:01:45;;;;;;;9.50;8.80;;;1050.00;998.40;;;;;;5069549;28;20052;-52
2022/06/07 08:04:11;;;;;;;10.20;9.27;;;1075.40;972.80;;;;;;5069656;28;20082;-52
2022/06/07 08:06:38;;;;;;;10.18;9.48;;;1075.90;972.80;;;;;;5069265;28;20021;-54
2022/06/07 08:09:06;;;;;;;10.32;9.55;;;1076.10;972.80;;;;;;5069624;28;20068;-51
2022/06/07 08:11:35;;;;;;;9.93;9.23;;;1050.20;1024.00;;;;;;5069306;28;20025;-54
2022/06/07 08:14:02;;;;;;;8.50;7.68;;;973.70;1100.80;;;;;;5072758;28;20032;-54
2022/06/07 08:16:28;;;;;;;8.60;7.80;;;973.10;1152.00;;;;;;5072997;28;20024;-53
2022/06/07 08:18:54;;;;;;;7.07;6.32;;;922.20;1177.60;;;;;;5072762;28;20060;-53
2022/06/07 08:21:25;;;;;;;6.82;6.22;;;896.70;1203.20;;;;;;5072728;28;20056;-51
2022/06/07 08:23:54;;;;;;;7.38;6.68;;;870.80;1280.00;;;;;;5072802;28;20025;-52
2022/06/07 08:26:21;;;;;;;6.60;6.00;;;845.70;1331.20;;;;;;5072910;28;20032;-54
2022/06/07 08:28:47;;;;;;;7.53;6.82;;;870.50;1305.60;;;;;;5072306;28;20031;-51
2022/06/07 08:31:15;;;;;;;6.60;5.88;;;845.40;1356.80;;;;;;5072662;28;20099;-54
2022/06/07 08:39:10;;;;;;;6.28;5.68;;;819.90;1408.00;;;;;;5072085;28;20093;-55
2022/06/07 08:41:48;;;;;;;6.85;6.10;;;844.80;1433.60;;;;;;5072308;28;20104;-54
2022/06/07 08:44:21;;;;;;;9.73;6.43;;;819.20;1433.60;;;;;;5072400;28;20048;-54
2022/06/07 08:46:49;;;;;;;8.52;6.35;;;819.60;1408.00;;;;;;5072244;28;20115;-56
2022/06/07 08:49:16;;;;;;;6.78;5.80;;;794.40;1484.80;;;;;;5072560;28;20476;-55
2022/06/07 08:52:15;;;;;;;6.43;5.82;;;794.40;1459.20;;;;;;5072164;28;20459;-56
2022/06/07 08:54:41;;;;;;;6.70;6.10;;;794.30;1484.80;;;;;;5072168;28;20029;-55
2022/06/07 08:57:22;;;;;;;6.20;5.60;;;819.30;1459.20;;;;;;5071840;28;20033;-54
2022/06/07 09:00:26;;;;;;;6.75;6.07;;;794.10;1484.80;;;;;;5071999;28;20048;-55
2022/06/07 09:03:00;;;;;;;9.10;8.20;;;794.50;1484.80;;;;;;4971367;28;20035;-55
2022/06/07 09:05:27;;;;;;;6.53;5.70;;;794.00;1510.40;;;;;;4971233;28;20045;-55
2022/06/07 09:07:53;;;;;;;7.38;5.75;;;794.00;1510.40;;;;;;4971286;28;20046;-53
2022/06/07 09:13:06;;;;;;;6.55;5.53;;;768.90;1510.40;;;;;;4971091;28;20090;-55
2022/06/07 09:15:34;;;;;;;6.88;5.68;;;793.80;1536.00;;;;;;4971058;28;20027;-55
2022/06/07 09:18:04;;;;;;;5.95;5.32;;;768.90;1510.40;;;;;;4970812;28;20035;-53
2022/06/07 09:21:05;;;;;;;6.05;5.45;;;768.70;1561.60;;;;;;4970630;28;20035;-54
2022/06/07 09:23:49;;;;;;;7.32;6.53;;;768.80;1536.00;;;;;;4932270;29;20054;-55
2022/06/07 09:26:18;;;;;;;6.72;5.75;;;768.50;1536.00;;;;;;4932118;29;20047;-52
2022/06/07 09:28:50;;;;;;;7.05;5.85;;;768.60;1561.60;;;;;;4932215;29;20044;-50
2022/06/07 09:31:21;;;;;;;6.35;5.75;;;768.60;1536.00;;;;;;4931810;29;20505;-53
2022/06/07 09:33:53;;;;;;;5.75;5.18;;;768.80;1561.60;;;;;;4932080;29;20032;-55
2022/06/07 09:36:29;;;;;;;6.20;5.30;;;768.60;1561.60;;;;;;4931847;29;20114;-54
2022/06/07 09:39:01;;;;;;;8.45;6.03;;;768.50;1561.60;;;;;;5003580;28;20438;-55
2022/06/07 09:41:38;;;;;;;7.37;6.10;;;768.60;1561.60;;;;;;5029060;28;20029;-52
2022/06/07 09:44:15;;;;;;;7.57;6.63;;;768.60;1561.60;;;;;;5029231;28;20025;-54
2022/06/07 09:46:43;;;;;;;6.60;5.38;;;793.70;1587.20;;;;;;5029075;28;20041;-53
2022/06/07 09:49:46;;;;;;;8.75;5.80;;;768.70;1536.00;;;;;;5028995;28;20549;-53
2022/06/07 09:52:25;;;;;;;6.55;5.38;;;768.90;1536.00;;;;;;5029039;28;20546;-54
2022/06/07 09:54:58;;;;;;;6.43;5.68;;;768.80;1536.00;;;;;;5029053;28;20566;-54
2022/06/07 09:57:47;;;;;;;6.35;5.57;;;768.90;1536.00;;;;;;5028817;28;20108;-55
2022/06/07 10:00:36;;;;;;;6.60;5.63;;;768.80;1561.60;;;;;;5028983;28;20056;-53
2022/06/07 10:03:23;;;;;;;6.18;5.45;;;768.40;1536.00;;;;;;5029044;28;20033;-55
2022/06/07 10:05:57;;;;;;;9.85;6.47;;;768.50;1510.40;;;;;;5028656;28;20065;-55
2022/06/07 10:08:35;;;;;;;6.55;5.88;;;768.70;1561.60;;;;;;5028664;28;20029;-55
2022/06/07 10:11:16;;;;;;;7.95;5.75;;;768.70;1561.60;;;;;;5028773;28;20127;-52
2022/06/07 10:14:09;;;;;;;9.63;5.85;;;768.90;1561.60;;;;;;5028836;28;20029;-54
2022/06/07 10:16:35;;;;;;;6.60;5.93;;;768.60;1561.60;;;;;;5028364;28;20033;-53
2022/06/07 10:19:35;;;;;;;7.70;6.28;;;793.60;1587.20;;;;;;5028396;28;20450;-54
2022/06/07 10:22:09;;;;;;;8.10;6.25;;;793.60;1561.60;;;;;;5028583;28;20129;-54
2022/06/07 10:25:00;;;;;;;7.65;5.70;;;793.90;1536.00;;;;;;5028129;28;20029;-55
2022/06/07 10:27:37;;;;;;;9.20;6.03;;;793.70;1484.80;;;;;;5070388;28;20032;-55
2022/06/07 10:30:26;;;;;;;6.70;5.65;;;768.90;1382.40;;;;;;5070323;28;20036;-55
2022/06/07 10:32:59;;;;;;;9.55;5.43;;;768.90;1459.20;;;;;;4969700;28;20039;-54
2022/06/07 10:35:39;;;;;;;6.68;5.30;;;768.70;1433.60;;;;;;4968920;28;20030;-53
2022/06/07 10:38:35;;;;;;;9.55;6.25;;;768.60;1433.60;;;;;;4969487;28;20113;-53
2022/06/07 10:41:27;;;;;;;6.53;5.53;;;768.60;1459.20;;;;;;4969651;28;20038;-55
2022/06/07 10:43:58;;;;;;;5.97;5.10;;;768.50;1459.20;;;;;;4969386;28;20509;-53
2022/06/07 10:46:27;;;;;;;5.63;4.75;;;768.10;1433.60;;;;;;4967897;28;20038;-53
2022/06/07 10:49:24;;;;;;;5.57;4.38;;;743.30;1459.20;;;;;;4967486;28;20027;-51
2022/06/07 10:52:21;;;;;;;4.95;4.45;;;743.00;1433.60;;;;;;4967321;28;20117;-53
2022/06/07 10:54:53;;;;;;;7.45;4.95;;;743.30;1459.20;;;;;;4967112;28;20038;-54
2022/06/07 10:57:21;;;;;;;5.80;5.20;;;768.10;1433.60;;;;;;4966981;28;20478;-52
2022/06/07 10:59:50;;;;;;;6.57;5.28;;;768.30;1459.20;;;;;;4966737;28;20102;-52
2022/06/07 11:02:40;;;;;;;7.65;5.68;;;768.40;1484.80;;;;;;4967130;28;20429;-54
2022/06/07 11:11:05;;;;;;;8.15;4.90;;;743.20;1484.80;;;;;;5064816;28;20043;-55
2022/06/07 11:13:54;;;;;;;6.18;5.25;;;743.20;1484.80;;;;;;5068011;28;20033;-56
2022/06/07 11:16:30;;;;;;;7.82;5.40;;;743.30;1510.40;;;;;;5068302;28;20017;-53
2022/06/07 11:18:59;;;;;;;8.02;6.15;;;743.10;1561.60;;;;;;5068042;28;20033;-52
2022/06/07 11:21:24;;;;;;;6.72;5.97;;;743.30;1561.60;;;;;;5068237;28;20078;-53
2022/06/07 11:24:24;;;;;;;7.85;5.38;;;743.10;1536.00;;;;;;5068261;28;20037;-55
2022/06/07 11:26:50;;;;;;;6.18;5.07;;;743.10;1510.40;;;;;;5067289;28;20023;-55
2022/06/07 11:29:21;;;;;;;5.38;4.80;;;743.10;1536.00;;;;;;5068103;28;20028;-53
2022/06/07 11:31:46;;;;;;;6.10;5.30;;;743.20;1536.00;;;;;;5068057;28;20023;-52
2022/06/07 11:34:23;;;;;;;6.60;5.13;;;743.10;1536.00;;;;;;5068147;28;20112;-54
2022/06/07 11:37:10;;;;;;;6.35;5.38;;;743.30;1510.40;;;;;;5068153;28;20021;-52
2022/06/07 11:39:38;;;;;;;8.95;5.57;;;743.00;1536.00;;;;;;5005222;28;20049;-55
2022/06/07 11:42:06;;;;;;;6.68;5.68;;;743.30;1561.60;;;;;;5005908;28;20029;-55
2022/06/07 11:44:39;;;;;;;6.03;5.10;;;743.00;1536.00;;;;;;5005948;28;20042;-53
2022/06/07 11:47:08;;;;;;;6.28;5.18;;;743.30;1510.40;;;;;;5006315;28;20053;-53
2022/06/07 11:49:46;;;;;;;5.68;4.30;;;768.10;1510.40;;;;;;5009707;28;20504;-53
2022/06/07 11:52:12;;;;;;;12.90;5.85;;;743.30;1459.20;;;;;;5009396;28;20029;-53
2022/06/07 11:54:43;;;;;;;7.82;4.70;;;743.20;1484.80;;;;;;5009621;28;20575;-53
2022/06/07 11:57:32;;;;;;;5.55;4.50;;;768.10;1484.80;;;;;;5009280;28;20061;-54
2022/06/07 12:00:03;;;;;;;5.28;4.40;;;768.30;1459.20;;;;;;5009292;28;20038;-53
2022/06/07 12:02:31;;;;;;;6.03;4.68;;;768.30;1459.20;;;;;;5009382;28;20030;-55
2022/06/07 12:05:28;;;;;;;6.03;5.40;;;768.10;1484.80;;;;;;4992202;28;20066;-53
2022/06/07 12:08:31;;;;;;;5.30;4.53;;;743.30;1459.20;;;;;;5009288;28;20026;-53
2022/06/07 12:11:20;;;;;;;8.13;4.38;;;743.30;1433.60;;;;;;5009103;28;20037;-55
2022/06/07 12:14:06;;;;;;;6.47;5.55;;;768.10;1459.20;;;;;;5009167;28;20041;-53
2022/06/07 12:16:34;;;;;;;5.15;4.18;;;768.00;1484.80;;;;;;5035070;28;20163;-54
2022/06/07 12:19:03;;;;;;;6.75;5.20;;;743.30;1484.80;;;;;;5070688;28;20028;-54
2022/06/07 12:21:33;;;;;;;6.35;4.75;;;743.30;1536.00;;;;;;5071244;28;20493;-53
2022/06/07 12:24:14;;;;;;;6.40;4.63;;;743.00;1561.60;;;;;;5071076;28;20028;-53
2022/06/07 12:26:40;;;;;;;6.72;4.35;;;743.10;1561.60;;;;;;5071046;28;20033;-55
2022/06/07 12:29:23;;;;;;;5.30;4.75;;;743.20;1484.80;;;;;;5070777;28;20142;-52
2022/06/07 12:31:54;;;;;;;7.60;4.78;;;743.30;1510.40;;;;;;5070727;28;20048;-54
2022/06/07 12:34:21;;;;;;;7.47;4.88;;;768.00;1536.00;;;;;;5070950;28;20094;-56
2022/06/07 12:37:09;;;;;;;6.55;4.95;;;768.20;1536.00;;;;;;5070672;28;20059;-54
2022/06/07 12:39:57;;;;;;;8.80;5.22;;;768.10;1510.40;;;;;;5070675;28;20430;-55
2022/06/07 12:42:27;;;;;;;6.40;4.65;;;768.10;1536.00;;;;;;5071115;28;20475;-56
2022/06/07 12:44:59;;;;;;;6.30;5.03;;;743.30;1561.60;;;;;;5070334;28;20152;-53
2022/06/07 12:47:34;;;;;;;7.03;5.43;;;743.10;1536.00;;;;;;5070984;28;20039;-54
2022/06/07 12:50:01;;;;;;;6.78;5.07;;;743.20;1561.60;;;;;;5070558;28;20051;-56
2022/06/07 12:52:32;;;;;;;6.13;5.15;;;743.30;1561.60;;;;;;5070800;28;20383;-55
2022/06/07 12:55:09;;;;;;;5.55;4.75;;;743.30;1561.60;;;;;;5070431;28;20029;-56